6NY3 weather

Airy-Acres Airport
Interlaken, New York, United States

Public forecast

Using degrees Fahrenheit for public forecast. Weather courtesy of forecast.io.

METAR (pilot weather report)

Closest report is Penn Yan Airport, 14.3 nm (26.4 km) W. Retrieved 2019/07/22 06:53 UTC (48 minutes ago):

KPEO 220653Z AUTO 19003KT 10SM OVC090 21/19 A2993 RMK AO2 SLP127 T02060189

TAF (pilot weather forecast)

Closest forecast is Ithaca Tompkins Regional Airport, 15.1 nm (28.0 km) SE. Retrieved 2019/07/22 06:22 UTC (1 hour ago):

TAF KITH 220520Z 2206/2306 00000KT P6SM SCT100 FM221200 03003KT P6SM -SHRA OVC035 FM221500 32003KT 5SM -SHRA OVC025 FM221700 VRB03KT 5SM -SHRA OVC009 FM230100 35003KT P6SM BKN009